createdAt,value
2022-12-13T00:01:20.677Z,16.83
2022-12-13T00:03:48.583Z,18.03
2022-12-13T00:06:16.154Z,20.80
2022-12-13T00:08:43.677Z,19.83
2022-12-13T00:11:13.817Z,21.33
2022-12-13T00:13:43.683Z,20.07
2022-12-13T00:16:13.468Z,18.83
2022-12-13T00:18:41.285Z,18.00
2022-12-13T00:21:09.941Z,19.03
2022-12-13T00:23:37.468Z,17.33
2022-12-13T00:26:05.303Z,17.77
2022-12-13T00:28:33.355Z,21.17
2022-12-13T00:31:26.056Z,17.87
2022-12-13T00:33:50.486Z,17.90
2022-12-13T00:36:18.432Z,18.17
2022-12-13T00:38:46.013Z,20.47
2022-12-13T00:41:15.204Z,18.27
2022-12-13T00:43:43.057Z,21.97
2022-12-13T00:46:15.708Z,19.03
2022-12-13T00:48:43.652Z,17.87
2022-12-13T00:51:12.532Z,19.90
2022-12-13T00:53:40.219Z,16.03
2022-12-13T00:56:12.246Z,15.47
2022-12-13T00:58:39.993Z,13.87
2022-12-13T01:01:09.330Z,15.87
2022-12-13T01:03:39.225Z,17.10
2022-12-13T01:06:15.299Z,18.17
2022-12-13T01:08:44.130Z,16.33
2022-12-13T01:11:12.332Z,14.87
2022-12-13T01:13:40.319Z,16.43
2022-12-13T01:16:10.625Z,12.63
2022-12-13T01:18:42.383Z,13.13
2022-12-13T01:21:14.775Z,14.17
2022-12-13T01:23:42.789Z,17.27
2022-12-13T01:26:12.324Z,18.37
2022-12-13T01:28:40.010Z,16.27
2022-12-13T01:31:09.082Z,16.63
2022-12-13T01:33:36.926Z,12.83
2022-12-13T01:36:08.541Z,15.07
2022-12-13T01:38:37.817Z,11.83
2022-12-13T01:41:17.850Z,15.43
2022-12-13T01:43:55.875Z,15.67
2022-12-13T01:46:23.589Z,14.07
2022-12-13T01:48:56.334Z,15.00
2022-12-13T01:51:29.030Z,28.27
2022-12-13T01:54:00.763Z,16.50
2022-12-13T01:56:32.834Z,16.73
2022-12-13T01:59:02.978Z,14.30
2022-12-13T02:01:30.778Z,16.63
2022-12-13T02:03:58.279Z,16.90
2022-12-13T02:06:33.745Z,16.90
2022-12-13T02:09:02.430Z,19.40
2022-12-13T02:11:30.265Z,14.47
2022-12-13T02:13:57.782Z,13.13
2022-12-13T02:16:39.423Z,12.77
2022-12-13T02:19:39.458Z,11.73
2022-12-13T02:22:23.652Z,15.43
2022-12-13T02:25:10.894Z,12.40
2022-12-13T02:28:00.711Z,12.70
2022-12-13T02:30:39.001Z,12.47
2022-12-13T02:33:26.479Z,13.33
2022-12-13T02:36:05.738Z,12.83
2022-12-13T02:38:40.258Z,14.67
2022-12-13T02:41:16.754Z,13.20
2022-12-13T02:43:49.601Z,13.20
2022-12-13T02:46:24.314Z,15.30
2022-12-13T02:48:55.819Z,15.57
2022-12-13T02:51:24.800Z,14.03
2022-12-13T02:53:52.304Z,14.83
2022-12-13T02:56:20.472Z,17.93
2022-12-13T02:58:50.670Z,19.27
2022-12-13T03:01:40.022Z,15.87
2022-12-13T03:04:14.109Z,16.30
2022-12-13T03:06:51.355Z,16.60
2022-12-13T03:09:29.901Z,15.60
2022-12-13T03:12:29.050Z,15.90
2022-12-13T03:15:04.369Z,16.40
2022-12-13T03:17:40.508Z,18.37
2022-12-13T03:20:22.522Z,23.10
2022-12-13T03:22:50.555Z,20.80
2022-12-13T03:25:31.614Z,19.53
2022-12-13T03:28:01.459Z,19.47
2022-12-13T03:30:31.476Z,20.10
2022-12-13T03:33:00.693Z,17.43
2022-12-13T03:35:34.681Z,18.00
2022-12-13T03:38:22.794Z,16.33
2022-12-13T03:40:52.950Z,17.47
2022-12-13T03:43:22.458Z,18.80
2022-12-13T03:45:50.748Z,20.30
2022-12-13T03:48:22.453Z,21.70
2022-12-13T03:50:50.808Z,25.90
2022-12-13T03:53:22.296Z,21.57
2022-12-13T03:56:00.995Z,24.93
2022-12-13T03:58:36.019Z,25.13
2022-12-13T04:01:06.470Z,24.63
2022-12-13T04:03:35.523Z,26.50
2022-12-13T04:06:03.070Z,24.20
2022-12-13T04:08:30.683Z,25.97
2022-12-13T04:10:58.284Z,25.47
2022-12-13T04:13:34.067Z,25.23
2022-12-13T04:16:01.797Z,28.87
2022-12-13T04:18:29.383Z,29.03
2022-12-13T04:20:58.331Z,27.57
2022-12-13T04:23:25.979Z,53.30
2022-12-13T04:25:53.690Z,40.97
2022-12-13T04:28:22.151Z,37.07
2022-12-13T04:30:52.964Z,44.40
2022-12-13T04:33:21.913Z,51.03
2022-12-13T04:35:49.690Z,38.80
2022-12-13T04:38:19.331Z,54.57
2022-12-13T04:40:47.029Z,51.93
2022-12-13T04:43:14.557Z,41.20
2022-12-13T04:45:42.193Z,44.50
2022-12-13T04:48:09.780Z,45.57
2022-12-13T04:50:37.339Z,43.53
2022-12-13T04:53:04.868Z,40.50
2022-12-13T04:55:33.759Z,51.77
2022-12-13T04:58:01.279Z,50.57
2022-12-13T05:00:28.838Z,68.83
2022-12-13T05:02:56.406Z,55.80
2022-12-13T05:05:23.985Z,44.60
2022-12-13T05:07:51.585Z,61.30
2022-12-13T05:10:34.160Z,74.03
2022-12-13T05:13:07.547Z,46.77
2022-12-13T05:15:35.431Z,56.17
2022-12-13T05:18:09.762Z,45.43
2022-12-13T05:20:38.962Z,39.53
2022-12-13T05:23:06.566Z,73.73
2022-12-13T05:25:35.131Z,50.27
2022-12-13T05:28:08.966Z,36.20
2022-12-13T05:30:51.480Z,43.83
2022-12-13T05:33:19.037Z,37.97
2022-12-13T05:35:47.203Z,46.47
2022-12-13T05:38:14.758Z,52.63
2022-12-13T05:40:42.413Z,34.87
2022-12-13T05:43:21.206Z,36.00
2022-12-13T05:45:51.284Z,42.90
2022-12-13T05:48:24.152Z,38.43
2022-12-13T05:50:52.584Z,46.07
2022-12-13T05:53:39.544Z,42.37
2022-12-13T05:56:07.815Z,45.10
2022-12-13T05:58:36.305Z,36.03
2022-12-13T06:01:10.853Z,40.67
2022-12-13T06:03:38.784Z,39.93
2022-12-13T06:06:08.518Z,43.00
2022-12-13T06:08:36.610Z,35.37
2022-12-13T06:11:11.533Z,40.40
2022-12-13T06:13:42.867Z,37.87
2022-12-13T06:16:22.887Z,43.40
2022-12-13T06:18:56.175Z,35.07
2022-12-13T06:21:33.373Z,37.00
2022-12-13T06:24:13.930Z,35.97
2022-12-13T06:26:41.470Z,44.87
2022-12-13T06:29:10.333Z,37.27
2022-12-13T06:31:39.196Z,38.23
2022-12-13T06:34:14.182Z,38.37
2022-12-13T06:36:43.129Z,33.07
2022-12-13T06:39:10.736Z,37.80
2022-12-13T06:41:38.297Z,38.33
2022-12-13T06:44:06.364Z,38.60
2022-12-13T06:46:34.050Z,35.43
2022-12-13T06:49:02.957Z,38.57
2022-12-13T06:51:33.074Z,37.60
2022-12-13T06:54:02.380Z,34.20
2022-12-13T06:56:30.645Z,38.00
2022-12-13T06:59:01.730Z,37.60
2022-12-13T07:01:37.355Z,33.93
2022-12-13T07:04:30.306Z,36.67
2022-12-13T07:06:56.466Z,35.70
2022-12-13T07:09:29.809Z,36.27
2022-12-13T07:11:57.401Z,33.30
2022-12-13T07:14:24.944Z,32.60
2022-12-13T07:16:55.481Z,29.33
2022-12-13T07:19:28.405Z,30.60
2022-12-13T07:22:05.496Z,32.50
2022-12-13T07:24:33.164Z,28.07
2022-12-13T07:27:00.685Z,31.30
2022-12-13T07:29:28.207Z,29.23
2022-12-13T07:32:01.172Z,26.07
2022-12-13T07:34:30.952Z,33.10
2022-12-13T07:36:58.612Z,32.40
2022-12-13T07:39:26.982Z,31.67
2022-12-13T07:41:55.702Z,30.30
2022-12-13T07:44:23.248Z,35.70
2022-12-13T07:46:50.783Z,30.53
2022-12-13T07:49:18.374Z,35.13
2022-12-13T07:51:47.388Z,28.87
2022-12-13T07:54:14.895Z,30.10
2022-12-13T07:56:42.443Z,29.57
2022-12-13T07:59:10.145Z,29.67
2022-12-13T08:01:37.814Z,27.93
2022-12-13T08:04:05.789Z,29.13
2022-12-13T08:06:36.058Z,30.77
2022-12-13T08:09:05.995Z,28.20
2022-12-13T08:11:33.761Z,28.13
2022-12-13T08:14:01.380Z,26.13
2022-12-13T08:16:29.931Z,25.73
2022-12-13T08:19:02.103Z,29.20
2022-12-13T08:24:23.196Z,20.87
2022-12-13T08:26:50.707Z,23.17
2022-12-13T08:29:22.840Z,19.60
2022-12-13T08:32:01.719Z,20.23
2022-12-13T08:34:29.495Z,36.97
2022-12-13T08:37:01.725Z,26.60
2022-12-13T08:39:34.088Z,60.90
2022-12-13T08:42:15.155Z,43.87
2022-12-13T08:44:45.298Z,24.63
2022-12-13T08:47:13.399Z,21.63
2022-12-13T08:49:53.163Z,17.90
2022-12-13T08:52:22.283Z,17.80
2022-12-13T08:54:51.400Z,16.90
2022-12-13T08:57:18.975Z,16.77
2022-12-13T08:59:46.491Z,20.63
2022-12-13T09:02:15.160Z,20.33
2022-12-13T09:04:42.941Z,20.20
2022-12-13T09:07:10.460Z,17.87
2022-12-13T09:09:38.162Z,18.80
2022-12-13T09:12:10.247Z,63.27
2022-12-13T09:14:45.605Z,80.17
2022-12-13T09:17:14.766Z,48.27
2022-12-13T09:19:58.047Z,53.70
2022-12-13T09:22:32.815Z,72.13
2022-12-13T09:25:02.781Z,59.17
2022-12-13T09:27:39.605Z,36.17
2022-12-13T09:30:12.078Z,42.43
2022-12-13T09:32:39.660Z,41.83
2022-12-13T09:35:07.769Z,34.87
2022-12-13T09:37:36.971Z,17.47
2022-12-13T09:40:16.268Z,28.43
2022-12-13T09:43:12.487Z,25.27
2022-12-13T09:45:47.947Z,34.10
2022-12-13T09:48:22.915Z,31.43
2022-12-13T09:51:15.884Z,31.40
2022-12-13T09:53:41.167Z,37.67
2022-12-13T09:56:13.324Z,32.73
2022-12-13T09:58:42.223Z,34.90
2022-12-13T10:01:12.960Z,27.97
2022-12-13T10:03:42.401Z,30.10
2022-12-13T10:06:22.721Z,26.90
2022-12-13T10:08:58.345Z,22.30
2022-12-13T10:11:32.144Z,15.83
2022-12-13T10:14:05.416Z,21.27
2022-12-13T10:16:44.629Z,20.97
2022-12-13T10:19:28.287Z,20.97
2022-12-13T10:22:01.321Z,14.57
2022-12-13T10:24:36.970Z,18.10
2022-12-13T10:27:13.835Z,17.40
2022-12-13T10:30:03.025Z,18.33
2022-12-13T10:32:37.753Z,18.43
2022-12-13T10:35:20.653Z,17.00
2022-12-13T10:37:48.246Z,19.53
2022-12-13T10:40:31.912Z,17.73
2022-12-13T10:43:13.997Z,16.80
2022-12-13T10:45:44.222Z,17.67
2022-12-13T10:48:21.714Z,19.13
2022-12-13T10:51:01.829Z,16.87
2022-12-13T10:53:32.827Z,17.53
2022-12-13T10:56:02.154Z,17.63
2022-12-13T10:58:38.912Z,19.77
2022-12-13T11:01:13.052Z,16.97
2022-12-13T11:03:40.682Z,15.20
2022-12-13T11:06:13.994Z,16.70
2022-12-13T11:08:41.578Z,16.73
2022-12-13T11:11:10.938Z,21.90
2022-12-13T11:13:41.948Z,22.07
2022-12-13T11:16:22.476Z,20.07
2022-12-13T11:18:54.285Z,27.03
2022-12-13T11:21:26.410Z,19.70
2022-12-13T11:23:55.672Z,21.97
2022-12-13T11:26:26.647Z,24.77
2022-12-13T11:29:18.667Z,14.27
2022-12-13T11:32:01.409Z,15.87
2022-12-13T11:34:40.601Z,11.73
2022-12-13T11:37:17.990Z,12.60
2022-12-13T11:39:51.649Z,14.53
2022-12-13T11:42:26.736Z,24.33
2022-12-13T11:45:02.406Z,22.83
2022-12-13T11:47:38.184Z,24.43
2022-12-13T11:50:20.504Z,23.37
2022-12-13T11:53:06.770Z,16.97
2022-12-13T11:55:39.933Z,14.40
2022-12-13T11:58:16.474Z,19.57
2022-12-13T12:00:50.064Z,24.10
2022-12-13T12:03:21.793Z,20.20
2022-12-13T12:05:56.168Z,28.00
2022-12-13T12:08:34.178Z,19.97
2022-12-13T12:11:08.411Z,22.60
2022-12-13T12:13:51.481Z,21.30
2022-12-13T12:16:30.055Z,17.37
2022-12-13T12:19:01.625Z,12.57
2022-12-13T12:22:12.181Z,8.67
2022-12-13T12:24:36.744Z,11.27
2022-12-13T12:27:22.467Z,10.30
2022-12-13T12:30:23.114Z,13.60
2022-12-13T12:32:54.997Z,14.93
2022-12-13T12:35:38.143Z,12.60
2022-12-13T12:38:31.998Z,14.53
2022-12-13T12:41:23.737Z,11.60
2022-12-13T12:44:01.746Z,9.50
2022-12-13T12:47:01.436Z,9.50
2022-12-13T12:49:52.696Z,12.43
2022-12-13T12:52:29.562Z,10.30
2022-12-13T12:55:03.990Z,9.57
2022-12-13T12:57:40.597Z,13.47
2022-12-13T13:00:12.897Z,11.93
2022-12-13T13:02:44.649Z,8.77
2022-12-13T13:05:19.625Z,7.83
2022-12-13T13:07:52.861Z,7.20
2022-12-13T13:10:26.643Z,8.30
2022-12-13T13:13:11.504Z,11.13
2022-12-13T13:15:56.773Z,11.23
2022-12-13T13:18:44.839Z,9.57
2022-12-13T13:21:50.036Z,6.37
2022-12-13T13:24:24.657Z,10.37
2022-12-13T13:26:55.096Z,8.60
2022-12-13T13:29:35.422Z,11.17
2022-12-13T13:32:06.773Z,8.80
2022-12-13T13:34:36.281Z,8.53
2022-12-13T13:37:04.711Z,9.30
2022-12-13T13:39:56.664Z,12.60
2022-12-13T13:42:25.559Z,12.17
2022-12-13T13:45:12.462Z,10.23
2022-12-13T13:47:44.480Z,8.63
2022-12-13T13:51:10.008Z,8.87
2022-12-13T13:54:07.601Z,9.80
2022-12-13T13:57:33.164Z,12.67
2022-12-13T14:00:20.416Z,15.27
2022-12-13T14:03:34.027Z,19.10
2022-12-13T14:06:42.421Z,19.07
2022-12-13T14:09:58.076Z,20.87
2022-12-13T14:13:00.952Z,14.97
2022-12-13T14:16:00.397Z,14.27
2022-12-13T14:19:01.199Z,11.03
2022-12-13T14:21:39.584Z,11.43
2022-12-13T14:24:29.182Z,15.70
2022-12-13T14:27:13.368Z,11.30
2022-12-13T14:29:48.169Z,19.27
2022-12-13T14:32:26.755Z,22.80
2022-12-13T14:34:56.166Z,20.87
2022-12-13T14:37:31.334Z,25.83
2022-12-13T14:40:00.195Z,33.30
2022-12-13T14:42:30.204Z,28.20
2022-12-13T14:45:14.203Z,22.17
2022-12-13T14:47:44.028Z,36.33
2022-12-13T14:50:17.861Z,26.13
2022-12-13T14:52:46.410Z,26.10
2022-12-13T14:55:24.943Z,23.10
2022-12-13T14:57:54.300Z,21.80
2022-12-13T15:00:25.635Z,16.77
2022-12-13T15:02:56.637Z,18.70
2022-12-13T15:05:28.403Z,21.60
2022-12-13T15:07:57.380Z,33.23
2022-12-13T15:10:40.614Z,36.37
2022-12-13T15:13:08.548Z,29.10
2022-12-13T15:15:38.175Z,18.50
2022-12-13T15:18:16.582Z,16.40
2022-12-13T15:20:44.174Z,17.40
2022-12-13T15:23:19.745Z,17.77
2022-12-13T15:25:50.634Z,30.23
2022-12-13T15:28:21.872Z,31.63
2022-12-13T15:30:50.319Z,34.33
2022-12-13T15:33:26.388Z,31.57
2022-12-13T15:36:08.804Z,42.47
2022-12-13T15:38:38.530Z,26.00
2022-12-13T15:41:06.334Z,24.33
2022-12-13T15:43:38.097Z,25.53
2022-12-13T15:46:07.897Z,23.10
2022-12-13T15:48:39.832Z,17.07
2022-12-13T15:51:12.863Z,23.90
2022-12-13T15:53:41.949Z,29.17
2022-12-13T15:56:32.313Z,24.77
2022-12-13T15:59:01.196Z,23.73
2022-12-13T16:01:31.325Z,23.17
2022-12-13T16:04:03.527Z,24.80
2022-12-13T16:06:33.690Z,27.10
2022-12-13T16:09:03.860Z,26.33
2022-12-13T16:11:34.494Z,25.03
2022-12-13T16:14:27.205Z,26.53
2022-12-13T16:16:55.147Z,21.43
2022-12-13T16:19:24.092Z,34.60
2022-12-13T16:21:51.612Z,26.93
2022-12-13T16:24:19.200Z,23.17
2022-12-13T16:26:48.102Z,37.90
2022-12-13T16:29:19.303Z,31.93
2022-12-13T16:31:47.334Z,12.93
2022-12-13T16:34:17.404Z,16.77
2022-12-13T16:36:47.654Z,14.70
2022-12-13T16:39:15.622Z,16.53
2022-12-13T16:41:45.744Z,21.27
2022-12-13T16:44:22.671Z,16.17
2022-12-13T16:47:11.732Z,17.87
2022-12-13T16:49:38.502Z,41.30
2022-12-13T16:52:07.684Z,37.87
2022-12-13T16:54:35.536Z,25.17
2022-12-13T16:57:03.072Z,14.70
2022-12-13T16:59:30.616Z,20.37
2022-12-13T17:01:58.635Z,17.17
2022-12-13T17:04:27.377Z,16.57
2022-12-13T17:06:55.555Z,19.53
2022-12-13T17:09:25.561Z,15.33
2022-12-13T17:11:53.351Z,23.87
2022-12-13T17:14:20.868Z,24.00
2022-12-13T17:16:48.431Z,22.97
2022-12-13T17:19:17.366Z,18.60
2022-12-13T17:21:44.934Z,20.03
2022-12-13T17:24:12.516Z,20.03
2022-12-13T17:26:54.874Z,22.27
2022-12-13T17:29:23.156Z,18.80
2022-12-13T17:31:50.680Z,21.93
2022-12-13T17:34:18.196Z,22.67
2022-12-13T17:36:45.936Z,23.27
2022-12-13T17:39:13.512Z,22.17
2022-12-13T17:41:42.432Z,26.17
2022-12-13T17:44:22.129Z,22.97
2022-12-13T17:46:54.924Z,19.67
2022-12-13T17:49:23.288Z,22.63
2022-12-13T17:51:52.699Z,21.73
2022-12-13T17:54:20.563Z,26.43
2022-12-13T17:56:49.438Z,22.10
2022-12-13T17:59:17.557Z,18.80
2022-12-13T18:01:45.482Z,20.27
2022-12-13T18:04:13.508Z,21.50
2022-12-13T18:06:41.687Z,20.60
2022-12-13T18:09:09.890Z,23.77
2022-12-13T18:11:37.460Z,22.13
2022-12-13T18:14:08.246Z,18.40
2022-12-13T18:16:38.332Z,21.90
2022-12-13T18:19:07.836Z,23.70
2022-12-13T18:21:36.749Z,21.00
2022-12-13T18:24:05.589Z,27.17
2022-12-13T18:26:33.503Z,36.60
2022-12-13T18:29:01.003Z,32.40
2022-12-13T18:31:29.978Z,32.13
2022-12-13T18:33:57.662Z,26.50
2022-12-13T18:36:26.543Z,25.37
2022-12-13T18:38:54.209Z,22.37
2022-12-13T18:41:23.537Z,27.30
2022-12-13T18:43:55.857Z,26.50
2022-12-13T18:46:26.983Z,34.67
2022-12-13T18:48:56.615Z,25.67
2022-12-13T18:51:24.785Z,38.67
2022-12-13T18:53:53.097Z,27.73
2022-12-13T18:56:20.766Z,26.40
2022-12-13T18:58:49.067Z,28.73
2022-12-13T19:01:17.404Z,35.83
2022-12-13T19:03:46.803Z,36.30
2022-12-13T19:06:18.113Z,34.87
2022-12-13T19:08:48.316Z,33.57
2022-12-13T19:11:15.871Z,26.83
2022-12-13T19:13:43.419Z,25.20
2022-12-13T19:16:14.317Z,27.27
2022-12-13T19:18:42.305Z,34.20
2022-12-13T19:21:12.940Z,37.13
2022-12-13T19:23:42.715Z,27.00
2022-12-13T19:26:12.071Z,30.13
2022-12-13T19:28:41.309Z,26.90
2022-12-13T19:31:10.025Z,30.47
2022-12-13T19:33:37.821Z,31.30
2022-12-13T19:36:06.299Z,27.93
2022-12-13T19:38:33.882Z,31.27
2022-12-13T19:41:07.561Z,36.77
2022-12-13T19:43:35.215Z,24.70
2022-12-13T19:46:02.934Z,24.23
2022-12-13T19:48:30.526Z,28.30
2022-12-13T19:50:59.996Z,26.33
2022-12-13T19:53:28.147Z,29.80
2022-12-13T19:55:56.158Z,30.60
2022-12-13T19:58:25.734Z,35.03
2022-12-13T20:00:53.719Z,35.20
2022-12-13T20:03:21.309Z,33.10
2022-12-13T20:05:58.160Z,37.20
2022-12-13T20:08:26.174Z,30.40
2022-12-13T20:10:58.405Z,27.57
2022-12-13T20:13:28.205Z,39.27
2022-12-13T20:15:56.170Z,40.40
2022-12-13T20:18:24.143Z,39.40
2022-12-13T20:21:11.213Z,47.70
2022-12-13T20:23:39.381Z,35.60
2022-12-13T20:26:09.533Z,49.73
2022-12-13T20:28:38.467Z,52.03
2022-12-13T20:31:07.240Z,50.43
2022-12-13T20:33:35.092Z,39.67
2022-12-13T20:36:23.756Z,27.93
2022-12-13T20:38:51.504Z,26.47
2022-12-13T20:41:19.194Z,31.50
2022-12-13T20:43:51.544Z,35.30
2022-12-13T20:46:19.175Z,34.27
2022-12-13T20:48:48.556Z,28.03
2022-12-13T20:51:17.581Z,36.13
2022-12-13T20:53:46.783Z,31.17
2022-12-13T20:56:16.884Z,43.63
2022-12-13T20:58:45.415Z,40.37
2022-12-13T21:01:18.108Z,56.50
2022-12-13T21:03:46.515Z,46.03
2022-12-13T21:06:14.648Z,46.70
2022-12-13T21:08:55.170Z,46.13
2022-12-13T21:11:28.671Z,50.90
2022-12-13T21:14:02.453Z,42.83
2022-12-13T21:16:38.666Z,39.23
2022-12-13T21:19:06.806Z,25.37
2022-12-13T21:21:34.625Z,27.73
2022-12-13T21:24:03.141Z,31.23
2022-12-13T21:26:35.366Z,28.13
2022-12-13T21:29:05.229Z,22.97
2022-12-13T21:31:33.067Z,26.33
2022-12-13T21:34:03.146Z,38.10
2022-12-13T21:36:31.954Z,34.00
2022-12-13T21:39:01.579Z,35.93
2022-12-13T21:41:29.998Z,37.40
2022-12-13T21:43:57.688Z,35.23
2022-12-13T21:46:41.377Z,38.70
2022-12-13T21:49:17.149Z,38.27
2022-12-13T21:51:47.854Z,47.90
2022-12-13T21:54:16.026Z,47.43
2022-12-13T21:57:01.186Z,53.03
2022-12-13T21:59:29.578Z,43.67
2022-12-13T22:02:15.613Z,46.07
2022-12-13T22:04:46.418Z,58.13
2022-12-13T22:07:16.417Z,53.57
2022-12-13T22:09:44.176Z,37.67
2022-12-13T22:12:19.624Z,46.17
2022-12-13T22:14:47.263Z,47.57
2022-12-13T22:17:14.891Z,50.73
2022-12-13T22:19:42.459Z,50.33
2022-12-13T22:22:11.661Z,46.83
2022-12-13T22:24:39.183Z,41.83
2022-12-13T22:27:07.051Z,32.83
2022-12-13T22:29:34.586Z,32.67
2022-12-13T22:32:02.171Z,34.10
2022-12-13T22:34:29.771Z,38.93
2022-12-13T22:36:57.415Z,36.13
2022-12-13T22:39:26.300Z,35.73
2022-12-13T22:41:53.846Z,34.10
2022-12-13T22:44:21.745Z,30.17
2022-12-13T22:46:49.382Z,31.37
2022-12-13T22:49:16.964Z,33.43
2022-12-13T22:51:44.814Z,30.57
2022-12-13T22:54:12.396Z,37.73
2022-12-13T22:56:41.289Z,40.90
2022-12-13T22:59:08.893Z,33.60
2022-12-13T23:01:38.764Z,32.70
2022-12-13T23:04:07.335Z,32.23
2022-12-13T23:06:37.437Z,35.50
2022-12-13T23:09:07.796Z,31.70
2022-12-13T23:11:53.080Z,34.07
2022-12-13T23:14:31.155Z,31.70
2022-12-13T23:16:59.252Z,31.37
2022-12-13T23:19:49.723Z,23.67
2022-12-13T23:22:15.367Z,35.97
2022-12-13T23:24:42.875Z,41.13
2022-12-13T23:27:10.404Z,42.27
2022-12-13T23:29:39.487Z,30.73
2022-12-13T23:32:07.025Z,42.13
2022-12-13T23:34:34.670Z,52.07
2022-12-13T23:37:02.181Z,33.60
2022-12-13T23:39:29.739Z,33.03
2022-12-13T23:41:57.284Z,35.83
2022-12-13T23:44:25.015Z,41.57
2022-12-13T23:46:53.917Z,37.43
2022-12-13T23:49:21.453Z,31.33
2022-12-13T23:51:48.965Z,26.70
2022-12-13T23:54:19.307Z,34.30
2022-12-13T23:56:46.895Z,35.53
2022-12-13T23:59:14.479Z,30.30
